createdAt,value
2017-07-25T00:00:15.727Z,66.7
2017-07-25T00:01:16.033Z,66.99
2017-07-25T00:02:16.015Z,66.89
2017-07-25T00:03:15.695Z,67.27
2017-07-25T00:04:15.680Z,67.37
2017-07-25T00:05:15.979Z,67.37
2017-07-25T00:06:15.652Z,67.56
2017-07-25T00:07:15.954Z,67.37
2017-07-25T00:08:15.940Z,67.66
2017-07-25T00:09:15.933Z,67.85
2017-07-25T00:10:15.921Z,67.37
2017-07-25T00:11:15.604Z,67.66
2017-07-25T00:12:15.897Z,67.76
2017-07-25T00:13:15.885Z,67.76
2017-07-25T00:14:15.877Z,67.94
2017-07-25T00:15:15.865Z,67.27
2017-07-25T00:16:15.853Z,66.89
2017-07-25T00:17:15.528Z,66.99
2017-07-25T00:18:15.830Z,66.8
2017-07-25T00:19:15.815Z,67.47
2017-07-25T00:20:15.490Z,67.37
2017-07-25T00:21:15.794Z,67.47
2017-07-25T00:22:15.472Z,67.76
2017-07-25T00:23:15.771Z,68.04
2017-07-25T00:24:15.761Z,68.42
2017-07-25T00:25:15.431Z,68.52
2017-07-25T00:26:15.442Z,68.62
2017-07-25T00:27:15.721Z,68.62
2017-07-25T00:28:15.709Z,68.52
2017-07-25T00:29:15.701Z,68.52
2017-07-25T00:30:15.692Z,68.13
2017-07-25T00:31:15.674Z,67.85
2017-07-25T00:32:15.660Z,68.62
2017-07-25T00:33:15.648Z,68.42
2017-07-25T00:34:15.644Z,68.52
2017-07-25T00:35:15.623Z,68.04
2017-07-25T00:36:15.300Z,67.94
2017-07-25T00:37:15.616Z,68.13
2017-07-25T00:38:15.279Z,67.85
2017-07-25T00:39:15.588Z,67.85
2017-07-25T00:40:15.256Z,68.04
2017-07-25T00:41:15.559Z,68.23
2017-07-25T00:42:15.229Z,67.85
2017-07-25T00:43:15.529Z,67.66
2017-07-25T00:44:15.520Z,67.94
2017-07-25T00:45:15.507Z,68.33
2017-07-25T00:46:15.494Z,67.94
2017-07-25T00:47:15.483Z,68.04
2017-07-25T00:48:15.477Z,68.13
2017-07-25T00:49:15.150Z,68.04
2017-07-25T00:50:15.456Z,67.94
2017-07-25T00:51:15.129Z,67.85
2017-07-25T00:52:15.110Z,68.04
2017-07-25T00:53:15.418Z,68.23
2017-07-25T00:54:15.401Z,68.33
2017-07-25T00:55:15.080Z,67.85
2017-07-25T00:56:15.378Z,68.33
2017-07-25T00:57:15.365Z,68.33
2017-07-25T00:58:15.355Z,68.23
2017-07-25T00:59:15.341Z,68.13
2017-07-25T01:00:15.028Z,67.94
2017-07-25T01:01:15.317Z,68.04
2017-07-25T01:02:15.307Z,68.52
2017-07-25T01:03:14.985Z,68.33
2017-07-25T01:04:15.290Z,68.9
2017-07-25T01:05:14.960Z,68.9
2017-07-25T01:06:14.950Z,68.62
2017-07-25T01:07:15.250Z,68.9
2017-07-25T01:08:14.926Z,68.42
2017-07-25T01:09:15.224Z,68.33
2017-07-25T01:10:14.897Z,68.62
2017-07-25T01:11:15.405Z,68.8
2017-07-25T01:12:15.190Z,68.52
2017-07-25T01:13:14.863Z,68.62
2017-07-25T01:14:14.853Z,68.9
2017-07-25T01:15:14.846Z,68.8
2017-07-25T01:16:15.142Z,68.42
2017-07-25T01:17:14.816Z,68.52
2017-07-25T01:18:14.807Z,69.38
2017-07-25T01:19:15.100Z,69.19
2017-07-25T01:20:14.790Z,69.19
2017-07-25T01:21:14.770Z,69.29
2017-07-25T01:22:15.070Z,69.48
2017-07-25T01:23:14.748Z,69.38
2017-07-25T01:24:15.044Z,69.19
2017-07-25T01:25:14.725Z,69.38
2017-07-25T01:26:15.051Z,69.38
2017-07-25T01:27:14.696Z,69
2017-07-25T01:28:14.692Z,69.29
2017-07-25T01:29:14.998Z,69.29
2017-07-25T01:30:14.659Z,69.09
2017-07-25T01:31:14.966Z,69
2017-07-25T01:32:14.947Z,69.48
2017-07-25T01:33:14.937Z,69.48
2017-07-25T01:34:14.983Z,69.19
2017-07-25T01:35:14.599Z,69.48
2017-07-25T01:36:14.904Z,70.05
2017-07-25T01:37:14.891Z,69.48
2017-07-25T01:38:14.878Z,69.29
2017-07-25T01:39:14.554Z,69.09
2017-07-25T01:40:14.855Z,68.9
2017-07-25T01:41:14.849Z,69
2017-07-25T01:42:14.835Z,69.19
2017-07-25T01:43:14.506Z,67.85
2017-07-25T01:44:14.493Z,68.33
2017-07-25T01:45:14.794Z,68.62
2017-07-25T01:46:14.785Z,68.8
2017-07-25T01:47:14.770Z,68.62
2017-07-25T01:48:14.782Z,68.62
2017-07-25T01:49:14.751Z,68.42
2017-07-25T01:50:14.741Z,68.04
2017-07-25T01:51:14.727Z,67.94
2017-07-25T01:52:14.709Z,68.13
2017-07-25T01:53:14.698Z,67.76
2017-07-25T01:54:14.376Z,67.66
2017-07-25T01:55:14.360Z,67.94
2017-07-25T01:56:14.668Z,67.85
2017-07-25T01:57:14.653Z,67.94
2017-07-25T01:58:14.330Z,68.13
2017-07-25T01:59:14.315Z,67.94
2017-07-25T02:00:14.614Z,68.04
2017-07-25T02:01:14.607Z,67.85
2017-07-25T02:02:14.280Z,67.94
2017-07-25T02:03:14.266Z,67.85
2017-07-25T02:04:14.572Z,67.94
2017-07-25T02:05:14.555Z,68.04
2017-07-25T02:06:14.541Z,67.94
2017-07-25T02:07:14.221Z,68.01
2017-07-25T02:08:14.520Z,67.91
2017-07-25T02:09:14.194Z,68.13
2017-07-25T02:10:14.181Z,68.13
2017-07-25T02:11:14.488Z,67.94
2017-07-25T02:12:14.510Z,68.04
2017-07-25T02:13:14.457Z,67.91
2017-07-25T02:14:14.132Z,68.62
2017-07-25T02:15:14.436Z,68.77
2017-07-25T02:16:14.423Z,68.58
2017-07-25T02:17:14.420Z,69.19
2017-07-25T02:18:14.399Z,68.96
2017-07-25T02:19:14.393Z,68.49
2017-07-25T02:20:14.061Z,68.58
2017-07-25T02:21:14.360Z,69.09
2017-07-25T02:22:14.348Z,68.33
2017-07-25T02:23:14.337Z,69.19
2017-07-25T02:24:14.328Z,68.58
2017-07-25T02:25:14.315Z,68.58
2017-07-25T02:26:14.321Z,68.96
2017-07-25T02:27:14.292Z,68.58
2017-07-25T02:28:14.274Z,68.58
2017-07-25T02:29:14.262Z,68.58
2017-07-25T02:30:14.260Z,68.77
2017-07-25T02:31:13.945Z,68.77
2017-07-25T02:32:13.918Z,68.2
2017-07-25T02:33:13.914Z,68.96
2017-07-25T02:34:14.204Z,69.15
2017-07-25T02:35:14.193Z,69.44
2017-07-25T02:36:14.181Z,68.77
2017-07-25T02:37:14.169Z,69.25
2017-07-25T02:38:13.852Z,69.06
2017-07-25T02:39:14.150Z,69.06
2017-07-25T02:40:13.833Z,68.77
2017-07-25T02:41:13.808Z,69.06
2017-07-25T02:42:14.107Z,69.25
2017-07-25T02:43:14.108Z,68.77
2017-07-25T02:44:13.769Z,68.39
2017-07-25T02:45:13.758Z,68.87
2017-07-25T02:46:13.743Z,69.44
2017-07-25T02:47:14.054Z,69.64
2017-07-25T02:48:13.731Z,70.4
2017-07-25T02:49:13.711Z,69.64
2017-07-25T02:50:14.007Z,70.21
2017-07-25T02:51:13.685Z,70.68
2017-07-25T02:52:13.989Z,71.16
2017-07-25T02:53:13.979Z,71.07
2017-07-25T02:54:13.960Z,71.07
2017-07-25T02:55:13.961Z,71.07
2017-07-25T02:56:13.937Z,71.73
2017-07-25T02:57:13.930Z,71.93
2017-07-25T02:58:13.598Z,72.5
2017-07-25T02:59:13.592Z,71.73
2017-07-25T03:00:13.898Z,71.83
2017-07-25T03:01:13.876Z,71.93
2017-07-25T03:02:13.861Z,71.36
2017-07-25T03:03:13.872Z,71.83
2017-07-25T03:04:13.838Z,71.64
2017-07-25T03:05:13.877Z,70.97
2017-07-25T03:06:13.820Z,70.97
2017-07-25T03:07:13.803Z,72.12
2017-07-25T03:08:13.787Z,72.02
2017-07-25T03:09:13.777Z,72.5
2017-07-25T03:10:13.451Z,71.83
2017-07-25T03:11:13.959Z,71.64
2017-07-25T03:12:13.740Z,70.97
2017-07-25T03:13:13.730Z,71.36
2017-07-25T03:14:13.400Z,71.64
2017-07-25T03:15:13.704Z,71.36
2017-07-25T03:16:13.687Z,72.12
2017-07-25T03:17:13.363Z,71.93
2017-07-25T03:18:13.353Z,71.26
2017-07-25T03:19:13.340Z,71.73
2017-07-25T03:20:13.325Z,71.16
2017-07-25T03:21:13.627Z,72.12
2017-07-25T03:22:13.615Z,71.64
2017-07-25T03:23:13.601Z,71.07
2017-07-25T03:24:13.594Z,71.73
2017-07-25T03:25:13.583Z,72.02
2017-07-25T03:26:13.565Z,72.79
2017-07-25T03:27:13.553Z,72.69
2017-07-25T03:28:13.538Z,72.5
2017-07-25T03:29:13.222Z,72.22
2017-07-25T03:30:13.527Z,72.69
2017-07-25T03:31:13.513Z,72.79
2017-07-25T03:32:13.492Z,72.79
2017-07-25T03:33:13.476Z,72.31
2017-07-25T03:34:13.464Z,72.02
2017-07-25T03:35:13.453Z,71.83
2017-07-25T03:36:13.443Z,71.83
2017-07-25T03:37:13.114Z,70.78
2017-07-25T03:38:13.414Z,70.78
2017-07-25T03:39:13.404Z,70.4
2017-07-25T03:40:13.078Z,70.78
2017-07-25T03:41:13.065Z,71.07
2017-07-25T03:42:13.363Z,70.3
2017-07-25T03:43:13.351Z,69.92
2017-07-25T03:44:13.027Z,69.54
2017-07-25T03:45:13.014Z,69.73
2017-07-25T03:46:13.003Z,70.01
2017-07-25T03:47:13.303Z,70.11
2017-07-25T03:48:12.981Z,69.82
2017-07-25T03:49:13.281Z,69.35
2017-07-25T03:50:13.269Z,69.54
2017-07-25T03:51:13.253Z,69.35
2017-07-25T03:52:12.930Z,69.73
2017-07-25T03:53:12.913Z,69.73
2017-07-25T03:54:13.222Z,69.54
2017-07-25T03:55:13.203Z,69.44
2017-07-25T03:56:12.879Z,69.35
2017-07-25T03:57:13.180Z,69.35
2017-07-25T03:58:13.162Z,69.15
2017-07-25T03:59:13.150Z,69.25
2017-07-25T04:00:12.829Z,69.25
2017-07-25T04:01:12.817Z,68.49
2017-07-25T04:02:12.804Z,69.06
2017-07-25T04:03:12.793Z,68.87
2017-07-25T04:04:13.097Z,69.25
2017-07-25T04:05:12.769Z,68.58
2017-07-25T04:06:13.067Z,67.82
2017-07-25T04:07:12.741Z,68.01
2017-07-25T04:08:13.043Z,68.39
2017-07-25T04:09:12.718Z,68.39
2017-07-25T04:10:12.708Z,67.91
2017-07-25T04:11:12.693Z,67.91
2017-07-25T04:12:12.677Z,68.1
2017-07-25T04:13:12.672Z,68.39
2017-07-25T04:14:12.966Z,68.2
2017-07-25T04:15:12.956Z,68.1
2017-07-25T04:16:12.944Z,68.01
2017-07-25T04:17:12.619Z,67.63
2017-07-25T04:18:12.605Z,67.72
2017-07-25T04:19:12.592Z,67.63
2017-07-25T04:20:12.891Z,68.29
2017-07-25T04:21:12.567Z,67.82
2017-07-25T04:22:12.867Z,67.72
2017-07-25T04:23:12.854Z,67.91
2017-07-25T04:24:12.842Z,67.63
2017-07-25T04:25:12.835Z,67.43
2017-07-25T04:26:12.506Z,67.43
2017-07-25T04:27:12.493Z,67.05
2017-07-25T04:28:12.792Z,67.14
2017-07-25T04:29:12.783Z,66.76
2017-07-25T04:30:12.770Z,66.57
2017-07-25T04:31:12.754Z,66.47
2017-07-25T04:32:12.739Z,67.05
2017-07-25T04:33:12.728Z,67.05
2017-07-25T04:34:12.717Z,66.86
2017-07-25T04:35:12.709Z,66.57
2017-07-25T04:36:12.692Z,66.38
2017-07-25T04:37:12.682Z,66.76
2017-07-25T04:38:12.671Z,66.57
2017-07-25T04:39:12.656Z,66.67
2017-07-25T04:40:12.681Z,66.38
2017-07-25T04:41:12.634Z,66.28
2017-07-25T04:42:12.621Z,66.28
2017-07-25T04:43:12.292Z,66.57
2017-07-25T04:44:12.595Z,66.76
2017-07-25T04:45:12.580Z,66.67
2017-07-25T04:46:12.260Z,66.67
2017-07-25T04:47:12.253Z,66.57
2017-07-25T04:48:12.546Z,66.57
2017-07-25T04:49:12.531Z,66.67
2017-07-25T04:50:12.531Z,66.28
2017-07-25T04:51:12.512Z,66.09
2017-07-25T04:52:12.494Z,66.09
2017-07-25T04:53:12.176Z,65.9
2017-07-25T04:54:12.159Z,66.38
2017-07-25T04:55:12.455Z,66.57
2017-07-25T04:56:12.451Z,66.47
2017-07-25T04:57:12.434Z,66.47
2017-07-25T04:58:12.423Z,66.28
2017-07-25T04:59:12.094Z,66.28
2017-07-25T05:00:12.399Z,65.61
2017-07-25T05:01:12.438Z,65.9
2017-07-25T05:02:12.371Z,65.9
2017-07-25T05:03:12.360Z,65.81
2017-07-25T05:04:12.040Z,66
2017-07-25T05:05:12.018Z,66.47
2017-07-25T05:06:12.011Z,66.09
2017-07-25T05:07:12.306Z,66.13
2017-07-25T05:08:11.987Z,66.22
2017-07-25T05:09:11.971Z,66.41
2017-07-25T05:10:11.962Z,66.41
2017-07-25T05:11:12.461Z,66.22
2017-07-25T05:12:12.248Z,66.22
2017-07-25T05:13:11.925Z,66.03
2017-07-25T05:14:12.220Z,66.13
2017-07-25T05:15:11.898Z,66.51
2017-07-25T05:16:12.196Z,66.51
2017-07-25T05:17:12.190Z,66.51
2017-07-25T05:18:11.861Z,66.41
2017-07-25T05:19:11.861Z,66.61
2017-07-25T05:20:12.147Z,66.7
2017-07-25T05:21:11.829Z,66.51
2017-07-25T05:22:12.126Z,66.13
2017-07-25T05:23:11.798Z,66.99
2017-07-25T05:24:12.105Z,66.32
2017-07-25T05:25:12.096Z,66.51
2017-07-25T05:26:11.765Z,66.32
2017-07-25T05:27:11.753Z,66.13
2017-07-25T05:28:12.053Z,66.41
2017-07-25T05:29:12.041Z,66.41
2017-07-25T05:30:12.031Z,66.41
2017-07-25T05:31:12.015Z,66.13
2017-07-25T05:32:12.001Z,66.51
2017-07-25T05:33:11.673Z,66.32
2017-07-25T05:34:11.977Z,66.32
2017-07-25T05:35:11.659Z,66.51
2017-07-25T05:36:11.640Z,66.89
2017-07-25T05:37:11.628Z,66.89
2017-07-25T05:38:11.636Z,67.56
2017-07-25T05:39:11.610Z,67.85
2017-07-25T05:40:11.905Z,67.27
2017-07-25T05:41:11.583Z,66.99
2017-07-25T05:42:11.916Z,67.18
2017-07-25T05:43:11.871Z,66.8
2017-07-25T05:44:11.563Z,66.8
2017-07-25T05:45:11.853Z,67.41
2017-07-25T05:46:11.832Z,67.66
2017-07-25T05:47:11.510Z,67.56
2017-07-25T05:48:11.817Z,67.66
2017-07-25T05:49:11.795Z,67.66
2017-07-25T05:50:11.790Z,67.88
2017-07-25T05:51:11.465Z,67.69
2017-07-25T05:52:11.453Z,67.88
2017-07-25T05:53:11.749Z,68.46
2017-07-25T05:54:11.743Z,69.32
2017-07-25T05:55:11.730Z,69.03
2017-07-25T05:56:11.716Z,69.23
2017-07-25T05:57:11.704Z,69.03
2017-07-25T05:58:11.377Z,69.42
2017-07-25T05:59:11.368Z,69.42
2017-07-25T06:00:11.355Z,69.99
2017-07-25T06:01:11.653Z,69.7
2017-07-25T06:02:11.334Z,69.99
2017-07-25T06:03:11.635Z,69.99
2017-07-25T06:04:11.619Z,70.37
2017-07-25T06:05:11.608Z,69.99
2017-07-25T06:06:11.284Z,70.47
2017-07-25T06:07:11.581Z,70.18
2017-07-25T06:08:11.258Z,70.85
2017-07-25T06:09:11.249Z,71.33
2017-07-25T06:10:11.238Z,71.42
2017-07-25T06:11:11.542Z,71.62
2017-07-25T06:12:11.214Z,71.33
2017-07-25T06:13:11.512Z,71.42
2017-07-25T06:14:11.503Z,71.91
2017-07-25T06:15:11.196Z,71.42
2017-07-25T06:16:11.480Z,72.09
2017-07-25T06:17:11.469Z,72.09
2017-07-25T06:18:11.459Z,72.29
2017-07-25T06:19:11.445Z,72.29
2017-07-25T06:20:11.434Z,72.19
2017-07-25T06:21:11.111Z,72.09
2017-07-25T06:22:11.415Z,72.99
2017-07-25T06:23:11.083Z,72.71
2017-07-25T06:24:11.396Z,73.09
2017-07-25T06:25:11.373Z,72.99
2017-07-25T06:26:11.366Z,73.66
2017-07-25T06:27:11.352Z,73.66
2017-07-25T06:28:11.027Z,73.76
2017-07-25T06:29:11.333Z,74.05
2017-07-25T06:30:11.316Z,74.33
2017-07-25T06:31:10.996Z,74.82
2017-07-25T06:32:11.296Z,74.52
2017-07-25T06:33:11.285Z,74.72
2017-07-25T06:34:11.275Z,75.2
2017-07-25T06:35:11.265Z,74.91
2017-07-25T06:36:10.935Z,75.29
2017-07-25T06:37:11.238Z,76.06
2017-07-25T06:38:11.259Z,77.21
2017-07-25T06:39:11.215Z,77.5
2017-07-25T06:40:11.204Z,77.78
2017-07-25T06:41:11.196Z,77.5
2017-07-25T06:42:10.870Z,78.84
2017-07-25T06:43:11.174Z,79.13
2017-07-25T06:44:11.163Z,78.74
2017-07-25T06:45:11.148Z,79.41
2017-07-25T06:46:11.144Z,79.32
2017-07-25T06:47:10.817Z,79.8
2017-07-25T06:48:10.804Z,79.7
2017-07-25T06:49:10.790Z,79.8
2017-07-25T06:50:11.099Z,79.89
2017-07-25T06:51:11.083Z,80.47
2017-07-25T06:52:10.760Z,80.76
2017-07-25T06:53:11.061Z,80.76
2017-07-25T06:54:11.048Z,80.85
2017-07-25T06:55:11.038Z,81.23
2017-07-25T06:56:10.712Z,81.23
2017-07-25T06:57:10.703Z,81.33
2017-07-25T06:58:11.007Z,81.62
2017-07-25T06:59:10.891Z,81.52
2017-07-25T07:00:10.672Z,81.9
2017-07-25T07:01:10.661Z,82.48
2017-07-25T07:02:10.963Z,82.48
2017-07-25T07:03:10.639Z,82.29
2017-07-25T07:04:10.943Z,83.72
2017-07-25T07:05:10.631Z,84.3
2017-07-25T07:06:10.928Z,83.53
2017-07-25T07:07:10.903Z,84.68
2017-07-25T07:08:10.583Z,84.97
2017-07-25T07:09:10.886Z,85.64
2017-07-25T07:10:10.877Z,85.54
2017-07-25T07:11:10.865Z,86.02
2017-07-25T07:12:10.860Z,86.31
2017-07-25T07:13:10.841Z,86.12
2017-07-25T07:14:10.830Z,85.64
2017-07-25T07:15:10.512Z,86.41
2017-07-25T07:16:10.815Z,86.98
2017-07-25T07:17:10.487Z,86.5
2017-07-25T07:18:10.787Z,86.88
2017-07-25T07:19:10.780Z,86.02
2017-07-25T07:20:10.471Z,86.12
2017-07-25T07:21:10.754Z,85.74
2017-07-25T07:22:10.433Z,87.94
2017-07-25T07:23:10.421Z,89.28
2017-07-25T07:24:10.423Z,89.86
2017-07-25T07:25:10.713Z,89.09
2017-07-25T07:26:10.389Z,89.76
2017-07-25T07:27:10.694Z,91.49
2017-07-25T07:28:10.371Z,92.35
2017-07-25T07:29:10.353Z,92.73
2017-07-25T07:30:10.345Z,93.21
2017-07-25T07:31:10.647Z,94.74
2017-07-25T07:32:10.653Z,94.64
2017-07-25T07:33:10.313Z,95.03
2017-07-25T07:34:10.616Z,94.17
2017-07-25T07:35:10.599Z,94.84
2017-07-25T07:36:10.279Z,94.55
2017-07-25T07:37:10.270Z,94.45
2017-07-25T07:38:10.574Z,95.6
2017-07-25T07:39:10.247Z,95.03
2017-07-25T07:40:10.554Z,97.14
2017-07-25T07:41:10.538Z,96.75
2017-07-25T07:42:10.527Z,97.42
2017-07-25T07:43:10.516Z,97.33
2017-07-25T07:44:10.197Z,96.94
2017-07-25T07:45:10.497Z,97.9
2017-07-25T07:46:10.168Z,96.94
2017-07-25T07:47:10.161Z,97.61
2017-07-25T07:48:10.464Z,96.75
2017-07-25T07:49:10.173Z,97.23
2017-07-25T07:50:10.126Z,96.56
2017-07-25T07:51:10.431Z,97.04
2017-07-25T07:52:10.421Z,96.75
2017-07-25T07:53:10.405Z,97.14
2017-07-25T07:54:10.085Z,96.56
2017-07-25T07:55:10.385Z,96.84
2017-07-25T07:56:10.375Z,95.98
2017-07-25T07:57:10.360Z,96.75
2017-07-25T07:58:10.039Z,97.14
2017-07-25T07:59:10.342Z,96.47
2017-07-25T08:00:10.020Z,95.98
2017-07-25T08:01:10.320Z,95.98
2017-07-25T08:02:10.305Z,95.51
2017-07-25T08:03:10.301Z,95.03
2017-07-25T08:04:10.285Z,93.78
2017-07-25T08:05:10.274Z,95.03
2017-07-25T08:06:10.262Z,94.55
2017-07-25T08:07:10.255Z,93.88
2017-07-25T08:08:10.250Z,93.59
2017-07-25T08:09:09.918Z,93.4
2017-07-25T08:10:09.913Z,93.78
2017-07-25T08:11:10.211Z,94.21
2017-07-25T08:12:10.203Z,93.83
2017-07-25T08:13:10.194Z,93.35
2017-07-25T08:14:10.178Z,93.35
2017-07-25T08:15:09.853Z,92.87
2017-07-25T08:16:10.163Z,91.34
2017-07-25T08:17:10.149Z,90
2017-07-25T08:18:09.820Z,90.09
2017-07-25T08:19:10.123Z,89.52
2017-07-25T08:20:09.795Z,88.76
2017-07-25T08:21:09.788Z,89.81
2017-07-25T08:22:10.095Z,89.23
2017-07-25T08:23:10.078Z,88.95
2017-07-25T08:24:09.755Z,88.56
2017-07-25T08:25:09.741Z,88.47
2017-07-25T08:26:10.043Z,88.23
2017-07-25T08:27:10.034Z,87.65
2017-07-25T08:28:10.021Z,87.27
2017-07-25T08:29:10.010Z,87.08
2017-07-25T08:30:09.686Z,86.79
2017-07-25T08:31:09.991Z,87.08
2017-07-25T08:32:09.666Z,87.27
2017-07-25T08:33:09.965Z,87.46
2017-07-25T08:34:09.955Z,87.65
2017-07-25T08:35:09.630Z,88.27
2017-07-25T08:36:09.625Z,89.51
2017-07-25T08:37:09.610Z,89.61
2017-07-25T08:38:09.598Z,89.8
2017-07-25T08:39:09.590Z,90.19
2017-07-25T08:40:09.891Z,90.86
2017-07-25T08:41:09.878Z,92.2
2017-07-25T08:42:09.873Z,92.68
2017-07-25T08:43:09.549Z,92.77
2017-07-25T08:44:09.536Z,92.77
2017-07-25T08:45:09.529Z,92.3
2017-07-25T08:46:09.831Z,92.49
2017-07-25T08:47:09.823Z,93.44
2017-07-25T08:48:09.817Z,94.21
2017-07-25T08:49:09.797Z,93.63
2017-07-25T08:50:09.476Z,93.93
2017-07-25T08:51:09.465Z,93.63
2017-07-25T08:52:09.767Z,93.44
2017-07-25T08:53:09.753Z,94.4
2017-07-25T08:54:09.750Z,93.54
2017-07-25T08:55:09.736Z,92.58
2017-07-25T08:56:09.414Z,91.91
2017-07-25T08:57:09.403Z,92.01
2017-07-25T08:58:09.710Z,91.38
2017-07-25T08:59:09.700Z,91.67
2017-07-25T09:00:09.685Z,91.86
2017-07-25T09:01:09.363Z,91.86
2017-07-25T09:02:09.351Z,91.96
2017-07-25T09:03:09.659Z,91.19
2017-07-25T09:04:09.645Z,91
2017-07-25T09:05:09.329Z,90.23
2017-07-25T09:06:09.313Z,92.44
2017-07-25T09:07:09.625Z,90.81
2017-07-25T09:08:09.607Z,90.71
2017-07-25T09:09:09.287Z,90.9
2017-07-25T09:10:09.585Z,94.35
2017-07-25T09:11:09.585Z,96.66
2017-07-25T09:12:09.461Z,95.98
2017-07-25T09:13:09.559Z,95.21
2017-07-25T09:14:09.237Z,95.03
2017-07-25T09:15:09.536Z,93.4
2017-07-25T09:16:09.530Z,92.44
2017-07-25T09:17:09.517Z,91.72
2017-07-25T09:18:09.712Z,92.58
2017-07-25T09:19:09.501Z,95.65
2017-07-25T09:20:09.200Z,95.26
2017-07-25T09:21:09.163Z,95.46
2017-07-25T09:22:09.156Z,94.69
2017-07-25T09:23:09.146Z,94.12
2017-07-25T09:24:09.452Z,94.79
2017-07-25T09:25:09.124Z,95.84
2017-07-25T09:26:09.437Z,95.55
2017-07-25T09:27:09.110Z,94.98
2017-07-25T09:28:09.412Z,96.61
2017-07-25T09:29:09.408Z,98.24
2017-07-25T09:30:09.082Z,98.82
2017-07-25T09:31:09.081Z,98.62
2017-07-25T09:32:09.378Z,98.05
2017-07-25T09:33:09.363Z,97.95
2017-07-25T09:34:09.046Z,98.24
2017-07-25T09:35:09.349Z,98.53
2017-07-25T09:36:09.336Z,97.86
2017-07-25T09:37:09.013Z,97.19
2017-07-25T09:38:09.320Z,96.42
2017-07-25T09:39:09.311Z,96.22
2017-07-25T09:40:09.295Z,96.51
2017-07-25T09:41:09.288Z,96.22
2017-07-25T09:42:09.276Z,95.94
2017-07-25T09:43:09.275Z,95.36
2017-07-25T09:44:08.949Z,95.46
2017-07-25T09:45:09.283Z,94.21
2017-07-25T09:46:09.237Z,95.75
2017-07-25T09:47:09.230Z,95.94
2017-07-25T09:48:09.220Z,96.89
2017-07-25T09:49:09.212Z,95.55
2017-07-25T09:50:08.888Z,94.69
2017-07-25T09:51:08.877Z,93.73
2017-07-25T09:52:08.874Z,93.73
2017-07-25T09:53:08.861Z,94.79
2017-07-25T09:54:09.162Z,95.65
2017-07-25T09:55:08.841Z,96.66
2017-07-25T09:56:08.842Z,97.71
2017-07-25T09:57:09.133Z,95.65
2017-07-25T09:58:08.811Z,94.59
2017-07-25T09:59:08.802Z,93.68
2017-07-25T10:00:08.800Z,93.87
2017-07-25T10:01:09.103Z,95.03
2017-07-25T10:02:08.776Z,96.85
2017-07-25T10:03:09.082Z,96.94
2017-07-25T10:04:09.072Z,98.96
2017-07-25T10:05:09.061Z,97.81
2017-07-25T10:06:09.051Z,98.1
2017-07-25T10:07:08.731Z,99.44
2017-07-25T10:08:08.719Z,99.99
2017-07-25T10:09:08.717Z,98.86
2017-07-25T10:10:08.700Z,98.96
2017-07-25T10:11:09.002Z,98.67
2017-07-25T10:12:08.684Z,97.71
2017-07-25T10:13:08.675Z,97.61
2017-07-25T10:14:08.978Z,98.67
2017-07-25T10:15:08.973Z,99.99
2017-07-25T10:16:08.650Z,99.99
2017-07-25T10:17:08.640Z,99.99
2017-07-25T10:18:08.941Z,99.99
2017-07-25T10:19:08.621Z,99.99
2017-07-25T10:20:08.926Z,99.99
2017-07-25T10:21:08.602Z,98.96
2017-07-25T10:22:08.904Z,99.99
2017-07-25T10:23:08.585Z,99.29
2017-07-25T10:24:08.888Z,98.14
2017-07-25T10:25:08.879Z,99.01
2017-07-25T10:26:08.554Z,97.56
2017-07-25T10:27:08.880Z,96.99
2017-07-25T10:28:08.541Z,96.42
2017-07-25T10:29:08.529Z,95.55
2017-07-25T10:30:08.847Z,95.65
2017-07-25T10:31:08.509Z,96.22
2017-07-25T10:32:08.498Z,95.98
2017-07-25T10:33:08.804Z,95.46
2017-07-25T10:34:08.793Z,95.46
2017-07-25T10:35:08.819Z,94.31
2017-07-25T10:36:08.775Z,92.96
2017-07-25T10:37:08.762Z,92.86
2017-07-25T10:38:08.445Z,92.63
2017-07-25T10:39:08.750Z,91.77
2017-07-25T10:40:08.420Z,93.01
2017-07-25T10:41:08.410Z,91.67
2017-07-25T10:42:08.712Z,91.19
2017-07-25T10:43:08.713Z,91.77
2017-07-25T10:44:08.698Z,91.48
2017-07-25T10:45:08.739Z,90.52
2017-07-25T10:46:08.365Z,91.09
2017-07-25T10:47:08.670Z,90.9
2017-07-25T10:48:08.340Z,91.19
2017-07-25T10:49:08.670Z,90.81
2017-07-25T10:50:08.322Z,90.14
2017-07-25T10:51:08.627Z,91.14
2017-07-25T10:52:08.620Z,91.52
2017-07-25T10:53:08.303Z,91.91
2017-07-25T10:54:08.593Z,92.1
2017-07-25T10:55:08.592Z,90.75
2017-07-25T10:56:08.574Z,90.37
2017-07-25T10:57:08.566Z,89.56
2017-07-25T10:58:08.555Z,90.47
2017-07-25T10:59:08.242Z,91.14
2017-07-25T11:00:08.547Z,91.72
2017-07-25T11:01:08.524Z,93.4
2017-07-25T11:02:08.205Z,93.49
2017-07-25T11:03:08.189Z,93.35
2017-07-25T11:04:08.181Z,92.19
2017-07-25T11:05:08.495Z,91.52
2017-07-25T11:06:08.487Z,91.24
2017-07-25T11:07:08.463Z,91.72
2017-07-25T11:08:08.143Z,91.52
2017-07-25T11:09:08.135Z,91.91
2017-07-25T11:10:08.432Z,90.37
2017-07-25T11:11:08.427Z,90.7
2017-07-25T11:12:08.622Z,90.22
2017-07-25T11:13:08.411Z,90.99
2017-07-25T11:14:08.085Z,91.28
2017-07-25T11:15:08.075Z,90.7
2017-07-25T11:16:08.382Z,90.8
2017-07-25T11:17:08.370Z,90.99
2017-07-25T11:18:08.356Z,93.34
2017-07-25T11:19:08.378Z,93.87
2017-07-25T11:20:08.342Z,93.2
2017-07-25T11:21:08.331Z,93.68
2017-07-25T11:22:08.009Z,93.49
2017-07-25T11:23:08.003Z,93.3
2017-07-25T11:24:07.991Z,91.57
2017-07-25T11:25:08.293Z,92.82
2017-07-25T11:26:07.971Z,92.14
2017-07-25T11:27:08.278Z,91.47
2017-07-25T11:28:07.953Z,90.95
2017-07-25T11:29:08.257Z,91.38
2017-07-25T11:30:07.936Z,90.66
2017-07-25T11:31:07.929Z,89.32
2017-07-25T11:32:08.228Z,88.55
2017-07-25T11:33:08.220Z,89.61
2017-07-25T11:34:08.209Z,89.79
2017-07-25T11:35:08.203Z,91.57
2017-07-25T11:36:07.876Z,91.28
2017-07-25T11:37:07.869Z,91.96
2017-07-25T11:38:08.172Z,91.33
2017-07-25T11:39:08.168Z,90.9
2017-07-25T11:40:08.149Z,91.57
2017-07-25T11:41:08.141Z,90.99
2017-07-25T11:42:07.819Z,90.32
2017-07-25T11:43:08.124Z,91.47
2017-07-25T11:44:07.801Z,90.42
2017-07-25T11:45:08.107Z,91.66
2017-07-25T11:46:08.112Z,91.38
2017-07-25T11:47:08.083Z,91.38
2017-07-25T11:48:07.762Z,91.76
2017-07-25T11:49:07.756Z,90.13
2017-07-25T11:50:08.058Z,91.38
2017-07-25T11:51:07.735Z,92.43
2017-07-25T11:52:07.730Z,92.53
2017-07-25T11:53:08.031Z,91.28
2017-07-25T11:54:08.020Z,90.32
2017-07-25T11:55:07.699Z,89.94
2017-07-25T11:56:08.000Z,90.13
2017-07-25T11:57:07.994Z,90.52
2017-07-25T11:58:07.984Z,91.86
2017-07-25T11:59:07.973Z,91.47
2017-07-25T12:00:07.647Z,90.8
2017-07-25T12:01:07.955Z,89.12
2017-07-25T12:02:07.632Z,91.61
2017-07-25T12:03:07.936Z,92
2017-07-25T12:04:07.612Z,93.54
2017-07-25T12:05:07.926Z,94.21
2017-07-25T12:06:07.910Z,93.05
2017-07-25T12:07:07.901Z,93.29
2017-07-25T12:08:07.896Z,93.29
2017-07-25T12:09:07.882Z,93.87
2017-07-25T12:10:07.562Z,94.93
2017-07-25T12:11:07.864Z,99.92
2017-07-25T12:12:07.856Z,98.96
2017-07-25T12:13:07.532Z,98.29
2017-07-25T12:14:07.525Z,95.89
2017-07-25T12:15:07.828Z,96.56
2017-07-25T12:16:07.821Z,96.51
2017-07-25T12:17:07.816Z,97.24
2017-07-25T12:18:07.802Z,97.19
2017-07-25T12:19:07.793Z,96.22
2017-07-25T12:20:07.786Z,95.75
2017-07-25T12:21:07.777Z,98.43
2017-07-25T12:22:07.454Z,96.7
2017-07-25T12:23:07.462Z,96.03
2017-07-25T12:24:07.752Z,96.42
2017-07-25T12:25:07.745Z,95.45
2017-07-25T12:26:07.424Z,95.36
2017-07-25T12:27:07.414Z,93.82
2017-07-25T12:28:07.716Z,94.21
2017-07-25T12:29:07.391Z,94.59
2017-07-25T12:30:07.391Z,95.07
2017-07-25T12:31:07.692Z,96.13
2017-07-25T12:32:07.683Z,95.45
2017-07-25T12:33:07.671Z,94.98
2017-07-25T12:34:07.668Z,94.11
2017-07-25T12:35:07.654Z,94.01
2017-07-25T12:36:07.647Z,95.75
2017-07-25T12:37:07.637Z,93.92
2017-07-25T12:38:07.628Z,95.94
2017-07-25T12:39:07.623Z,95.65
2017-07-25T12:40:07.312Z,92.57
2017-07-25T12:41:07.290Z,94.21
2017-07-25T12:42:07.591Z,94.01
2017-07-25T12:43:07.582Z,93.05
2017-07-25T12:44:07.572Z,92.19
2017-07-25T12:45:07.252Z,92.48
2017-07-25T12:46:07.244Z,92.19
2017-07-25T12:47:07.233Z,91.61
2017-07-25T12:48:07.223Z,90.94
2017-07-25T12:49:07.532Z,91.42
2017-07-25T12:50:07.524Z,90.84
2017-07-25T12:51:07.509Z,92.29
2017-07-25T12:52:07.506Z,94.11
2017-07-25T12:53:07.490Z,95.45
2017-07-25T12:54:07.483Z,94.31
2017-07-25T12:55:07.163Z,94.59